Time;durP1;ratioP1;P1;durP2;ratioP2;P2;SDS_P1;SDS_P2;PMS_P1;PMS_P2;Temp;Humidity;BMP_temperature;BMP_pressure;BME280_temperature;BME280_humidity;BME280_pressure;Samples;Min_cycle;Max_cycle;Signal;HPM_P1;HPM_P2
2022/03/11 00:02:11;;;;;;;10.67;7.07;;;;;;;4.64;46.34;100537.63;5037175;28;20356;-59
2022/03/11 00:04:37;;;;;;;11.03;8.20;;;;;;;4.62;46.47;100538.53;5076848;28;20184;-59
2022/03/11 00:07:02;;;;;;;11.60;7.80;;;;;;;4.69;46.74;100540.09;5073484;28;20205;-60
2022/03/11 00:09:28;;;;;;;12.77;7.37;;;;;;;4.71;46.54;100538.31;5072849;28;20234;-62
2022/03/11 00:11:53;;;;;;;10.20;7.57;;;;;;;4.73;46.75;100540.84;5056993;28;20332;-60
2022/03/11 00:14:18;;;;;;;11.13;7.53;;;;;;;4.60;46.94;100537.72;5055164;28;20189;-61
2022/03/11 00:16:43;;;;;;;12.37;7.53;;;;;;;4.55;47.15;100539.56;5071659;28;20227;-60
2022/03/11 00:19:09;;;;;;;11.43;7.93;;;;;;;4.65;47.05;100533.38;5058055;28;20173;-60
2022/03/11 00:21:34;;;;;;;9.77;7.83;;;;;;;4.67;47.19;100534.19;5067810;28;20284;-58
2022/03/11 00:23:59;;;;;;;11.27;7.70;;;;;;;4.66;47.29;100530.81;5076775;28;20283;-59
2022/03/11 00:26:25;;;;;;;12.27;7.40;;;;;;;4.64;47.33;100532.53;5073210;28;20169;-59
2022/03/11 00:28:51;;;;;;;9.80;7.70;;;;;;;4.73;47.24;100528.13;5073006;28;20181;-59
2022/03/11 00:31:16;;;;;;;12.43;7.83;;;;;;;4.63;47.57;100527.50;5033928;28;20224;-63
2022/03/11 00:33:41;;;;;;;12.83;8.00;;;;;;;4.60;47.90;100528.41;5073276;28;20302;-59
2022/03/11 00:36:06;;;;;;;11.50;7.77;;;;;;;4.56;48.00;100525.94;5072824;28;20169;-59
2022/03/11 00:38:32;;;;;;;10.43;8.03;;;;;;;4.61;48.12;100527.50;5072358;28;20185;-58
2022/03/11 00:40:58;;;;;;;10.07;7.40;;;;;;;4.61;48.09;100526.66;5069116;28;20231;-59
2022/03/11 00:43:23;;;;;;;11.67;7.53;;;;;;;4.52;48.20;100526.00;5080625;28;20193;-58
2022/03/11 00:45:49;;;;;;;12.53;8.03;;;;;;;4.56;48.42;100531.03;5073036;28;20165;-61
2022/03/11 00:48:14;;;;;;;11.70;8.47;;;;;;;4.49;48.81;100525.22;5072471;28;20175;-59
2022/03/11 00:50:40;;;;;;;10.50;7.90;;;;;;;4.57;48.54;100530.19;5067654;28;20232;-60
2022/03/11 00:53:05;;;;;;;9.50;7.47;;;;;;;4.49;48.83;100531.19;5077475;28;20208;-60
2022/03/11 00:55:30;;;;;;;13.73;8.20;;;;;;;4.49;48.79;100532.88;5072366;28;20226;-61
2022/03/11 00:57:56;;;;;;;11.10;8.40;;;;;;;4.48;49.07;100529.50;5071911;28;20216;-58
2022/03/11 01:00:21;;;;;;;14.93;8.80;;;;;;;4.37;49.16;100521.25;5064133;28;20651;-59
2022/03/11 01:02:47;;;;;;;12.63;7.87;;;;;;;4.34;49.51;100517.06;5073115;28;20173;-58
2022/03/11 01:05:12;;;;;;;12.67;8.93;;;;;;;4.30;49.72;100517.16;5072419;28;20183;-59
2022/03/11 01:07:38;;;;;;;11.83;7.80;;;;;;;4.30;49.80;100514.63;5071659;28;20214;-59
2022/03/11 01:10:05;;;;;;;11.57;8.17;;;;;;;4.31;49.99;100516.31;5060506;28;20242;-59
2022/03/11 01:12:31;;;;;;;11.77;8.40;;;;;;;4.25;50.03;100511.34;5066241;28;20203;-60
2022/03/11 01:14:56;;;;;;;11.97;8.40;;;;;;;4.26;50.18;100511.31;5072415;28;20627;-60
2022/03/11 01:17:21;;;;;;;11.70;8.27;;;;;;;4.18;50.27;100508.94;5071390;28;20176;-59
2022/03/11 01:19:47;;;;;;;12.73;8.53;;;;;;;4.12;50.58;100503.09;5072390;28;20196;-58
2022/03/11 01:22:12;;;;;;;12.67;9.10;;;;;;;4.11;50.68;100493.81;5060665;28;20233;-59
2022/03/11 01:24:37;;;;;;;12.30;8.80;;;;;;;4.15;50.89;100497.97;5072073;28;20168;-60
2022/03/11 01:27:03;;;;;;;11.53;8.97;;;;;;;4.12;50.67;100498.00;5072099;28;20970;-59
2022/03/11 01:29:28;;;;;;;14.43;8.80;;;;;;;4.11;50.89;100497.19;5071211;28;20180;-59
2022/03/11 01:31:54;;;;;;;13.43;8.67;;;;;;;4.14;50.95;100498.84;5076504;28;20226;-58
2022/03/11 01:34:20;;;;;;;14.63;9.27;;;;;;;4.14;50.83;100492.06;5073031;28;20644;-59
2022/03/11 01:36:46;;;;;;;12.50;9.20;;;;;;;4.15;50.95;100493.69;5070535;28;20234;-59
2022/03/11 01:39:11;;;;;;;13.50;9.17;;;;;;;4.15;50.94;100501.34;5071260;28;20465;-59
2022/03/11 01:41:37;;;;;;;13.63;9.60;;;;;;;4.19;50.85;100492.78;5050148;28;20228;-60
2022/03/11 01:44:06;;;;;;;13.23;9.50;;;;;;;4.19;51.05;100490.22;5071670;28;20230;-60
2022/03/11 01:46:32;;;;;;;13.60;10.50;;;;;;;4.16;50.80;100492.84;5070579;28;20318;-60
2022/03/11 01:48:58;;;;;;;14.47;9.53;;;;;;;4.14;51.01;100489.50;5070088;28;20703;-59
2022/03/11 01:51:28;;;;;;;13.73;9.23;;;;;;;4.17;50.93;100483.50;5051992;28;20309;-60
2022/03/11 01:53:54;;;;;;;12.83;9.07;;;;;;;4.17;51.03;100483.50;5050332;28;20177;-59
2022/03/11 01:56:22;;;;;;;13.77;9.10;;;;;;;4.16;51.01;100484.38;5061690;28;20188;-59
2022/03/11 01:58:49;;;;;;;13.77;9.70;;;;;;;4.09;51.29;100483.66;5073235;28;20696;-59
2022/03/11 02:01:15;;;;;;;11.60;9.43;;;;;;;4.13;51.29;100482.72;5064473;28;20274;-58
2022/03/11 02:03:41;;;;;;;15.63;9.73;;;;;;;4.13;51.26;100487.81;5077299;28;20180;-58
2022/03/11 02:06:08;;;;;;;14.10;10.37;;;;;;;4.14;51.36;100481.88;5071347;28;20189;-58
2022/03/11 02:08:35;;;;;;;16.97;10.67;;;;;;;4.10;51.40;100487.88;5070907;28;20222;-58
2022/03/11 02:11:01;;;;;;;12.73;9.60;;;;;;;4.09;51.31;100477.72;5063127;28;20231;-58
2022/03/11 02:13:26;;;;;;;14.07;9.17;;;;;;;4.06;51.57;100475.22;5070014;28;20622;-59
2022/03/11 02:15:52;;;;;;;13.93;9.60;;;;;;;3.99;51.80;100477.09;5071414;28;20184;-60
2022/03/11 02:18:17;;;;;;;12.73;9.97;;;;;;;3.94;51.98;100481.44;5070180;28;20262;-59
2022/03/11 02:20:44;;;;;;;13.50;9.80;;;;;;;3.93;52.07;100467.03;5066423;28;20312;-59
2022/03/11 02:23:11;;;;;;;13.97;10.67;;;;;;;3.90;52.27;100473.03;5081281;28;20187;-58
2022/03/11 02:25:39;;;;;;;13.47;9.90;;;;;;;3.85;52.52;100473.13;5071392;28;20670;-59
2022/03/11 02:28:05;;;;;;;13.77;10.37;;;;;;;3.80;52.66;100480.00;5086463;28;20165;-58
2022/03/11 02:30:30;;;;;;;14.33;10.53;;;;;;;3.77;52.64;100475.00;5064864;28;20238;-58
2022/03/11 02:32:55;;;;;;;13.17;9.80;;;;;;;3.74;52.96;100475.03;5082853;28;20734;-59
2022/03/11 02:35:20;;;;;;;15.23;10.13;;;;;;;3.72;53.12;100476.78;5071029;28;20175;-58
2022/03/11 02:37:46;;;;;;;17.00;10.43;;;;;;;3.70;52.97;100469.19;5070845;28;20178;-58
2022/03/11 02:40:11;;;;;;;15.10;9.70;;;;;;;3.60;53.52;100461.75;5060997;28;20576;-58
2022/03/11 02:42:37;;;;;;;15.27;10.43;;;;;;;3.58;53.47;100471.97;5054429;28;20243;-58
2022/03/11 02:45:04;;;;;;;14.40;10.50;;;;;;;3.59;53.56;100462.66;5071192;28;20213;-59
2022/03/11 02:47:29;;;;;;;17.83;10.27;;;;;;;3.58;53.82;100458.41;5069734;28;20179;-58
2022/03/11 02:49:55;;;;;;;15.60;10.73;;;;;;;3.51;53.95;100461.09;5071062;28;20682;-59
2022/03/11 02:52:21;;;;;;;17.43;11.43;;;;;;;3.48;54.04;100465.41;5076297;28;20246;-59
2022/03/11 02:54:48;;;;;;;16.03;11.20;;;;;;;3.47;54.23;100464.53;5068476;28;20189;-59
2022/03/11 02:57:13;;;;;;;19.53;11.63;;;;;;;3.46;54.12;100465.44;5072351;28;20219;-61
2022/03/11 02:59:38;;;;;;;16.33;11.97;;;;;;;3.46;54.34;100469.66;5070242;28;20182;-59
2022/03/11 03:02:04;;;;;;;14.03;10.90;;;;;;;3.35;54.66;100462.22;5072568;28;20270;-59
2022/03/11 03:04:29;;;;;;;14.63;10.83;;;;;;;3.31;55.04;100463.16;5071734;28;20515;-59
2022/03/11 03:06:55;;;;;;;17.37;11.30;;;;;;;3.30;55.14;100464.88;5074486;28;20222;-59
2022/03/11 03:09:20;;;;;;;14.03;8.97;;;;;;;3.24;55.30;100462.44;5074209;28;20181;-59
2022/03/11 03:11:45;;;;;;;16.27;11.17;;;;;;;3.26;55.46;100460.69;5066342;28;20231;-59
2022/03/11 03:14:11;;;;;;;16.63;10.63;;;;;;;3.21;55.31;100458.25;5076685;28;20188;-59
2022/03/11 03:16:36;;;;;;;16.10;11.63;;;;;;;3.15;55.67;100460.06;5074626;28;20187;-58
2022/03/11 03:19:01;;;;;;;16.73;10.93;;;;;;;3.16;55.97;100456.66;5074325;28;20182;-59
2022/03/11 03:21:27;;;;;;;15.33;11.50;;;;;;;3.11;55.87;100454.19;5063534;28;20630;-58
2022/03/11 03:23:53;;;;;;;16.03;11.27;;;;;;;3.08;56.41;100451.72;5074222;28;20175;-59
2022/03/11 03:26:18;;;;;;;16.40;11.23;;;;;;;3.04;56.47;100448.38;5074489;28;20193;-60
2022/03/11 03:28:44;;;;;;;14.90;11.23;;;;;;;3.01;56.64;100445.06;5072550;28;20175;-58
2022/03/11 03:31:09;;;;;;;15.57;11.47;;;;;;;3.01;56.65;100450.13;5063834;28;20297;-59
2022/03/11 03:33:34;;;;;;;15.83;11.17;;;;;;;3.01;56.77;100447.59;5073446;28;20571;-59
2022/03/11 03:36:00;;;;;;;18.77;12.10;;;;;;;2.98;56.92;100455.28;5074013;28;20182;-60
2022/03/11 03:38:25;;;;;;;14.73;12.07;;;;;;;2.98;57.07;100457.84;5073492;28;20175;-59
2022/03/11 03:40:50;;;;;;;14.83;11.60;;;;;;;2.93;57.01;100452.81;5070297;28;20290;-60
2022/03/11 03:43:16;;;;;;;17.10;13.03;;;;;;;2.91;57.05;100454.53;5083377;28;20277;-65
2022/03/11 03:45:41;;;;;;;16.20;10.83;;;;;;;2.88;57.30;100459.69;5074219;28;20325;-59
2022/03/11 03:48:07;;;;;;;15.47;12.20;;;;;;;2.86;57.51;100454.63;5072808;28;20190;-59
2022/03/11 03:50:32;;;;;;;18.73;11.33;;;;;;;2.87;57.56;100452.94;5062437;28;20261;-57
2022/03/11 03:52:57;;;;;;;18.47;12.67;;;;;;;2.83;57.60;100459.75;5085512;28;20296;-58
2022/03/11 03:55:23;;;;;;;20.07;13.13;;;;;;;2.85;57.77;100459.72;5076513;28;20187;-58
2022/03/11 03:57:48;;;;;;;15.90;12.20;;;;;;;2.80;57.84;100459.78;5073200;28;20321;-60
2022/03/11 04:00:14;;;;;;;19.53;13.90;;;;;;;2.73;58.20;100459.06;5052692;28;20178;-59
2022/03/11 04:02:47;;;;;;;19.27;13.03;;;;;;;2.75;58.40;100456.50;5072899;28;20204;-59
2022/03/11 04:05:13;;;;;;;17.43;12.63;;;;;;;2.75;58.23;100464.13;5072120;28;20185;-59
2022/03/11 04:07:40;;;;;;;20.10;13.87;;;;;;;2.64;58.71;100466.00;5072993;28;20182;-59
2022/03/11 04:10:05;;;;;;;17.43;13.17;;;;;;;2.53;59.19;100456.84;5062581;28;20169;-58
2022/03/11 04:12:32;;;;;;;19.73;13.60;;;;;;;2.54;59.56;100452.59;5066546;28;20193;-58
2022/03/11 04:14:57;;;;;;;18.07;13.30;;;;;;;2.50;59.60;100461.16;5072259;28;20185;-59
2022/03/11 04:17:22;;;;;;;17.90;13.90;;;;;;;2.42;60.09;100469.72;5060512;28;20564;-59
2022/03/11 04:19:48;;;;;;;17.63;14.00;;;;;;;2.41;60.12;100465.50;5073209;28;20257;-59
2022/03/11 04:22:13;;;;;;;20.07;14.60;;;;;;;2.34;60.11;100461.34;5062267;28;20324;-59
2022/03/11 04:24:39;;;;;;;19.20;14.03;;;;;;;2.32;60.40;100454.63;5073423;28;20181;-58
2022/03/11 04:27:04;;;;;;;20.63;13.63;;;;;;;2.34;60.15;100453.75;5073207;28;20174;-60
2022/03/11 04:29:29;;;;;;;18.57;13.20;;;;;;;2.30;60.65;100451.28;5072340;28;20290;-60
2022/03/11 04:31:55;;;;;;;18.33;13.83;;;;;;;2.20;60.99;100448.88;5041158;28;20328;-61
2022/03/11 04:34:21;;;;;;;17.43;13.13;;;;;;;2.19;61.07;100456.50;5072746;28;20182;-59
2022/03/11 04:36:46;;;;;;;20.37;14.53;;;;;;;2.17;61.13;100459.09;5072070;28;20203;-59
2022/03/11 04:39:12;;;;;;;18.97;14.33;;;;;;;2.20;60.95;100459.03;5072461;28;20185;-58
2022/03/11 04:41:37;;;;;;;21.63;15.00;;;;;;;2.14;61.61;100459.13;5075165;28;20639;-59
2022/03/11 04:44:03;;;;;;;21.83;14.13;;;;;;;2.09;61.61;100464.25;5076082;28;20177;-59
2022/03/11 04:46:29;;;;;;;19.47;13.73;;;;;;;2.17;61.36;100454.00;5071461;28;20169;-59
2022/03/11 04:48:54;;;;;;;21.93;15.30;;;;;;;2.12;61.66;100460.81;5072133;28;20187;-60
2022/03/11 04:51:22;;;;;;;20.23;14.63;;;;;;;1.98;61.77;100462.72;5060215;28;20234;-58
2022/03/11 04:53:48;;;;;;;21.93;15.97;;;;;;;2.00;61.66;100453.38;5063273;28;20180;-59
2022/03/11 04:56:13;;;;;;;21.87;16.10;;;;;;;1.90;62.42;100452.69;5070645;28;20173;-59
2022/03/11 04:58:38;;;;;;;20.40;15.83;;;;;;;1.73;63.00;100455.44;5058687;28;20247;-59
2022/03/11 05:01:03;;;;;;;22.77;14.80;;;;;;;1.76;62.93;100452.84;5049690;28;20343;-58
2022/03/11 05:03:29;;;;;;;21.03;14.97;;;;;;;1.73;62.78;100466.41;5059746;28;20182;-59
2022/03/11 05:05:54;;;;;;;21.70;15.20;;;;;;;1.74;62.83;100459.66;5057029;28;20658;-59
2022/03/11 05:08:20;;;;;;;19.70;14.37;;;;;;;1.65;62.70;100462.28;5071738;28;20200;-59
2022/03/11 05:10:45;;;;;;;21.93;15.43;;;;;;;1.69;62.51;100467.31;5067710;28;20290;-60
2022/03/11 05:13:10;;;;;;;21.80;15.63;;;;;;;1.70;62.31;100466.44;5082302;28;20205;-59
2022/03/11 05:15:38;;;;;;;27.13;17.57;;;;;;;1.65;62.89;100462.28;5072019;28;20188;-60
2022/03/11 05:18:04;;;;;;;21.80;15.57;;;;;;;1.73;62.37;100468.94;5070175;28;20272;-60
2022/03/11 05:20:29;;;;;;;21.77;16.17;;;;;;;1.70;61.85;100466.44;5055216;28;20652;-59
2022/03/11 05:22:55;;;;;;;22.13;16.10;;;;;;;1.53;61.69;100456.50;5071199;28;20268;-59
2022/03/11 05:25:20;;;;;;;27.87;16.27;;;;;;;1.51;62.49;100460.75;5072013;28;20338;-59
2022/03/11 05:27:45;;;;;;;21.67;16.47;;;;;;;1.46;62.37;100462.50;5071289;28;20179;-59
2022/03/11 05:30:11;;;;;;;23.00;16.07;;;;;;;1.50;61.82;100470.91;5062678;28;20260;-59
2022/03/11 05:32:44;;;;;;;22.87;16.17;;;;;;;1.45;61.78;100476.88;5070348;28;20195;-60
2022/03/11 05:35:11;;;;;;;21.97;16.23;;;;;;;1.43;61.84;100470.97;5070720;28;20183;-59
2022/03/11 05:37:37;;;;;;;20.13;15.80;;;;;;;1.34;62.04;100466.00;5069763;28;20352;-60
2022/03/11 05:40:03;;;;;;;25.27;16.60;;;;;;;1.44;61.54;100462.50;5067118;28;20255;-60
2022/03/11 05:42:28;;;;;;;25.40;16.57;;;;;;;1.50;61.41;100463.28;5069874;28;20254;-59
2022/03/11 05:44:54;;;;;;;21.93;15.97;;;;;;;1.43;60.89;100470.13;5071983;28;20165;-59
2022/03/11 05:47:19;;;;;;;28.37;16.57;;;;;;;1.39;60.44;100471.88;5069389;28;20188;-59
2022/03/11 05:49:44;;;;;;;21.57;16.07;;;;;;;1.35;60.85;100465.13;5066507;28;20177;-60
2022/03/11 05:52:10;;;;;;;21.57;15.23;;;;;;;1.35;60.76;100461.78;5076231;28;20227;-60
2022/03/11 05:54:35;;;;;;;22.83;15.43;;;;;;;1.36;60.73;100460.91;5071645;28;20183;-59
2022/03/11 05:57:01;;;;;;;20.67;14.77;;;;;;;1.31;60.47;100463.50;5071459;28;20686;-59
2022/03/11 05:59:26;;;;;;;22.70;15.73;;;;;;;1.36;60.39;100466.81;5069458;28;20204;-59
2022/03/11 06:01:52;;;;;;;20.90;15.73;;;;;;;1.39;59.85;100460.88;5060529;28;20617;-58
2022/03/11 06:04:17;;;;;;;21.57;16.03;;;;;;;1.35;59.79;100461.78;5071542;28;20175;-59
2022/03/11 06:06:42;;;;;;;21.37;15.57;;;;;;;1.35;60.10;100462.59;5071495;28;20184;-58
2022/03/11 06:09:08;;;;;;;20.03;14.73;;;;;;;1.28;60.25;100464.38;5071093;28;20231;-59
2022/03/11 06:11:34;;;;;;;20.50;14.83;;;;;;;1.34;59.20;100473.63;5050006;28;20228;-58
2022/03/11 06:14:00;;;;;;;22.17;16.13;;;;;;;1.31;59.89;100471.09;5066168;28;20169;-59
2022/03/11 06:16:25;;;;;;;25.17;16.30;;;;;;;1.45;59.18;100476.00;5069958;28;20690;-59
2022/03/11 06:18:51;;;;;;;21.60;15.47;;;;;;;1.40;59.01;100467.63;5071145;28;20177;-58
2022/03/11 06:21:16;;;;;;;21.73;15.07;;;;;;;1.37;58.79;100463.44;5058742;28;20228;-60
2022/03/11 06:23:42;;;;;;;21.33;15.63;;;;;;;1.40;58.79;100458.34;5064324;28;20547;-59
2022/03/11 06:26:07;;;;;;;20.27;15.70;;;;;;;1.40;58.68;100458.34;5065197;28;20176;-59
2022/03/11 06:28:32;;;;;;;26.10;15.33;;;;;;;1.39;58.52;100469.34;5070836;28;20180;-59
2022/03/11 06:30:58;;;;;;;20.57;15.30;;;;;;;1.49;58.20;100472.59;5068182;28;20222;-59
2022/03/11 06:33:23;;;;;;;21.33;15.37;;;;;;;1.69;57.74;100479.97;5079037;28;20239;-58
2022/03/11 06:35:50;;;;;;;23.93;14.90;;;;;;;1.63;57.11;100474.97;5071236;28;20173;-59
2022/03/11 06:38:16;;;;;;;24.00;15.03;;;;;;;1.81;56.80;100478.16;5068963;28;20184;-59
2022/03/11 06:40:41;;;;;;;22.37;14.80;;;;;;;1.96;56.20;100477.13;5060102;28;20256;-58
2022/03/11 06:43:07;;;;;;;22.83;15.23;;;;;;;2.25;54.97;100475.03;5074008;28;20636;-60
2022/03/11 06:45:32;;;;;;;20.63;15.77;;;;;;;2.68;53.85;100480.31;5074169;28;20234;-59
2022/03/11 06:47:57;;;;;;;19.43;15.57;;;;;;;3.44;51.73;100484.13;5075269;28;20188;-59
2022/03/11 06:50:23;;;;;;;19.57;14.33;;;;;;;3.88;49.63;100478.16;5052273;28;20681;-59
2022/03/11 06:52:48;;;;;;;18.27;13.90;;;;;;;4.18;48.33;100486.00;5072237;28;20229;-59
2022/03/11 06:55:13;;;;;;;20.73;15.10;;;;;;;4.91;46.72;100479.25;5054363;28;20174;-59
2022/03/11 06:57:39;;;;;;;19.33;14.50;;;;;;;4.76;45.60;100474.50;5053749;28;20802;-60
2022/03/11 07:00:06;;;;;;;20.47;13.57;;;;;;;4.58;45.41;100479.16;5044053;28;20254;-59
2022/03/11 07:02:31;;;;;;;17.03;13.40;;;;;;;5.64;44.24;100472.22;5068497;28;20213;-60
2022/03/11 07:04:57;;;;;;;16.67;14.17;;;;;;;6.18;42.55;100469.84;5060397;28;20186;-59
2022/03/11 07:07:22;;;;;;;18.37;14.50;;;;;;;6.49;41.96;100463.78;5055839;28;20234;-60
2022/03/11 07:09:48;;;;;;;18.00;14.13;;;;;;;6.05;41.66;100470.19;5054178;28;20550;-60
2022/03/11 07:12:13;;;;;;;18.00;13.83;;;;;;;6.11;41.75;100470.00;5044690;28;20344;-59
2022/03/11 07:14:39;;;;;;;19.00;13.03;;;;;;;6.20;40.80;100468.94;5073712;28;20703;-60
2022/03/11 07:17:06;;;;;;;18.93;12.83;;;;;;;6.27;41.09;100475.50;5056290;28;20181;-59
2022/03/11 07:19:32;;;;;;;18.17;13.27;;;;;;;6.95;39.54;100475.91;5051917;28;20199;-59
2022/03/11 07:21:59;;;;;;;27.07;15.13;;;;;;;7.38;38.85;100465.06;5058419;28;20224;-59
2022/03/11 07:24:25;;;;;;;17.13;13.13;;;;;;;7.31;37.81;100477.25;5052421;28;20227;-60
2022/03/11 07:26:50;;;;;;;19.17;13.57;;;;;;;6.41;39.01;100487.03;5053903;28;20247;-59
2022/03/11 07:29:16;;;;;;;16.93;13.73;;;;;;;6.89;39.07;100477.84;5053624;28;20181;-60
2022/03/11 07:31:41;;;;;;;18.47;11.63;;;;;;;7.27;37.22;100488.50;5055442;28;20311;-60
2022/03/11 07:34:06;;;;;;;14.13;12.30;;;;;;;6.88;37.92;100479.53;5055527;28;20182;-60
2022/03/11 07:36:34;;;;;;;17.30;13.10;;;;;;;7.54;37.53;100479.00;5054343;28;20188;-59
2022/03/11 07:39:00;;;;;;;14.90;11.73;;;;;;;7.07;37.47;100481.47;5059161;28;20176;-59
2022/03/11 07:41:26;;;;;;;15.03;12.07;;;;;;;7.11;37.18;100483.06;5061643;28;20580;-62
2022/03/11 07:43:52;;;;;;;14.67;12.60;;;;;;;7.11;36.99;100477.97;5069682;28;20279;-60
2022/03/11 07:46:17;;;;;;;15.63;12.40;;;;;;;7.52;36.69;100480.78;5062380;28;20692;-60
2022/03/11 07:48:43;;;;;;;15.57;12.23;;;;;;;7.90;35.25;100485.38;5052334;28;20180;-59
2022/03/11 07:51:08;;;;;;;20.70;12.80;;;;;;;7.05;35.99;100475.59;5055046;28;20242;-60
2022/03/11 07:53:35;;;;;;;13.80;12.30;;;;;;;6.92;36.36;100473.47;5067427;28;20658;-59
2022/03/11 07:56:01;;;;;;;13.43;10.70;;;;;;;6.93;36.21;100475.13;5052086;28;20188;-59
2022/03/11 07:58:26;;;;;;;18.03;11.57;;;;;;;6.13;37.45;100472.53;5061835;28;20227;-60
2022/03/11 08:00:52;;;;;;;14.13;11.33;;;;;;;5.41;39.01;100480.50;5052748;28;20224;-60
2022/03/11 08:03:18;;;;;;;15.00;11.23;;;;;;;4.81;40.03;100483.72;5064234;28;20192;-60
2022/03/11 08:05:44;;;;;;;13.37;10.97;;;;;;;4.35;41.42;100485.66;5055427;28;20183;-59
2022/03/11 08:08:09;;;;;;;16.33;10.40;;;;;;;4.50;40.87;100487.00;5073093;28;20221;-58
2022/03/11 08:10:37;;;;;;;13.83;10.33;;;;;;;4.62;40.66;100477.38;5063059;28;21003;-59
2022/03/11 08:13:03;;;;;;;17.60;11.33;;;;;;;4.45;41.17;100480.31;5072365;28;20200;-59
2022/03/11 08:15:29;;;;;;;11.93;10.23;;;;;;;4.42;40.88;100483.78;5052981;28;20293;-59
2022/03/11 08:17:55;;;;;;;15.87;10.93;;;;;;;4.27;40.92;100484.97;5058911;28;20172;-58
2022/03/11 08:20:20;;;;;;;13.20;10.47;;;;;;;4.14;41.40;100483.56;5063201;28;20553;-59
2022/03/11 08:22:46;;;;;;;15.10;10.07;;;;;;;4.16;41.55;100492.00;5069281;28;20186;-60
2022/03/11 08:25:12;;;;;;;21.87;10.50;;;;;;;4.36;41.25;100483.91;5053199;28;20169;-59
2022/03/11 08:27:41;;;;;;;16.00;10.23;;;;;;;4.60;40.69;100492.72;5050916;28;20174;-60
2022/03/11 08:30:08;;;;;;;12.33;10.30;;;;;;;4.56;40.72;100495.38;5030995;28;20189;-59
2022/03/11 08:32:33;;;;;;;17.27;11.97;;;;;;;4.64;40.34;100494.31;5066144;28;20450;-60
2022/03/11 08:34:58;;;;;;;13.83;10.03;;;;;;;4.55;40.50;100479.22;5053118;28;20182;-60
2022/03/11 08:37:24;;;;;;;14.60;11.23;;;;;;;4.51;41.12;100475.94;5052176;28;20220;-58
2022/03/11 08:39:50;;;;;;;14.17;9.57;;;;;;;4.30;41.00;100476.41;5065515;28;20172;-58
2022/03/11 08:42:15;;;;;;;15.13;10.33;;;;;;;4.24;41.22;100472.28;5067971;28;20812;-62
2022/03/11 08:44:40;;;;;;;14.40;9.70;;;;;;;4.16;41.00;100471.63;5072931;28;20624;-61
2022/03/11 08:47:06;;;;;;;13.47;10.03;;;;;;;4.05;41.19;100461.69;5072836;28;20169;-60
2022/03/11 08:49:31;;;;;;;11.80;9.50;;;;;;;4.16;41.19;100462.28;5072060;28;20183;-60
2022/03/11 08:51:57;;;;;;;12.50;10.37;;;;;;;4.22;41.02;100458.78;5061148;28;20320;-60
2022/03/11 08:54:22;;;;;;;14.40;9.77;;;;;;;4.11;41.14;100465.81;5053153;28;20487;-59
2022/03/11 08:56:47;;;;;;;12.17;9.93;;;;;;;4.23;40.82;100467.22;5050934;28;20322;-59
2022/03/11 08:59:13;;;;;;;13.03;9.37;;;;;;;4.32;40.41;100472.13;5051909;28;20476;-59
2022/03/11 09:01:38;;;;;;;15.70;10.00;;;;;;;4.50;40.82;100465.75;5054269;28;20233;-58
2022/03/11 09:04:03;;;;;;;15.07;9.40;;;;;;;4.62;40.21;100459.56;5055450;28;20183;-59
2022/03/11 09:06:30;;;;;;;12.60;9.70;;;;;;;4.58;39.98;100450.31;5061777;28;20173;-59
2022/03/11 09:08:55;;;;;;;12.80;9.23;;;;;;;5.08;39.10;100438.00;5071894;28;20703;-61
2022/03/11 09:11:21;;;;;;;14.10;10.50;;;;;;;5.78;37.73;100441.19;5061236;28;20333;-59
2022/03/11 09:13:47;;;;;;;16.97;10.07;;;;;;;6.19;37.34;100435.75;5071660;28;20227;-59
2022/03/11 09:16:13;;;;;;;13.17;10.30;;;;;;;6.61;36.51;100430.16;5070947;28;20277;-60
2022/03/11 09:18:38;;;;;;;11.00;8.70;;;;;;;6.58;35.59;100427.72;5071850;28;20258;-60
2022/03/11 09:21:04;;;;;;;13.55;10.85;;;;;;;7.83;34.43;100425.88;5060539;28;20430;-59
2022/03/11 09:23:29;;;;;;;14.70;10.13;;;;;;;8.78;32.67;100419.63;5071189;28;20181;-60
2022/03/11 09:25:55;;;;;;;12.47;10.03;;;;;;;9.84;31.15;100422.66;5071950;28;20268;-61
2022/03/11 09:28:20;;;;;;;15.00;10.27;;;;;;;10.62;29.95;100416.44;5069455;28;20192;-60
2022/03/11 09:30:45;;;;;;;18.13;10.43;;;;;;;10.86;29.40;100419.53;5062876;28;20227;-60
2022/03/11 09:33:11;;;;;;;11.43;9.77;;;;;;;12.41;27.65;100416.44;5081831;28;20256;-60
2022/03/11 09:35:36;;;;;;;13.00;10.00;;;;;;;12.52;26.77;100410.69;5061208;28;20235;-59
2022/03/11 09:38:01;;;;;;;11.37;10.27;;;;;;;11.06;28.33;100409.97;5058393;28;20663;-60
2022/03/11 09:40:27;;;;;;;12.37;9.83;;;;;;;10.52;28.87;100417.78;5053411;28;20262;-59
2022/03/11 09:42:52;;;;;;;12.17;10.00;;;;;;;11.73;27.68;100418.44;5063701;28;20341;-59
2022/03/11 09:45:23;;;;;;;11.47;10.27;;;;;;;11.05;28.40;100413.44;5051169;28;20186;-60
2022/03/11 09:47:48;;;;;;;12.67;10.03;;;;;;;10.98;28.31;100411.19;5051025;28;20177;-60
2022/03/11 09:50:14;;;;;;;13.40;10.10;;;;;;;11.58;28.39;100411.53;5054816;28;20199;-58
2022/03/11 09:52:39;;;;;;;14.03;10.40;;;;;;;12.36;26.92;100408.97;5050095;28;20717;-59
2022/03/11 09:55:05;;;;;;;14.90;10.77;;;;;;;11.23;27.79;100403.94;5051334;28;20181;-60
2022/03/11 09:57:30;;;;;;;14.27;10.93;;;;;;;12.04;27.38;100403.06;5050583;28;20300;-59
2022/03/11 09:59:56;;;;;;;12.23;9.83;;;;;;;12.38;26.49;100401.97;5051475;28;20186;-59
2022/03/11 10:02:21;;;;;;;11.27;10.03;;;;;;;13.00;26.06;100400.13;5056764;28;20232;-60
2022/03/11 10:04:48;;;;;;;12.70;10.40;;;;;;;11.45;27.53;100408.78;5050928;28;20323;-59
2022/03/11 10:07:27;;;;;;;11.93;10.17;;;;;;;11.15;27.82;100404.34;5055522;28;20207;-60
2022/03/11 10:09:53;;;;;;;15.43;10.80;;;;;;;11.63;27.36;100409.53;5056138;28;20173;-59
2022/03/11 10:12:20;;;;;;;16.63;11.20;;;;;;;12.85;26.05;100407.88;5040285;28;20374;-59
2022/03/11 10:15:01;;;;;;;16.20;10.63;;;;;;;12.25;25.87;100401.84;5050000;28;20184;-60
2022/03/11 10:17:27;;;;;;;11.87;10.63;;;;;;;12.65;26.29;100403.91;5050601;28;20192;-59
2022/03/11 10:20:02;;;;;;;11.60;10.40;;;;;;;11.74;26.56;100403.81;5049767;28;20203;-59
2022/03/11 10:22:29;;;;;;;11.40;9.43;;;;;;;11.04;27.92;100410.03;5023447;28;20338;-58
2022/03/11 10:24:55;;;;;;;13.60;10.93;;;;;;;11.93;27.06;100403.59;5049980;28;20181;-60
2022/03/11 10:27:23;;;;;;;13.93;10.60;;;;;;;11.54;27.52;100408.28;5050108;28;20355;-64
2022/03/11 10:29:50;;;;;;;12.90;9.53;;;;;;;13.80;26.42;100404.75;5049928;28;20184;-58
2022/03/11 10:32:22;;;;;;;12.00;10.00;;;;;;;12.99;26.06;100408.81;5041028;28;20285;-59
2022/03/11 10:34:47;;;;;;;12.00;9.67;;;;;;;12.66;25.98;100413.28;5049645;28;20177;-59
2022/03/11 10:37:14;;;;;;;11.90;10.70;;;;;;;10.96;28.23;100407.03;5056711;28;20195;-59
2022/03/11 10:39:44;;;;;;;11.33;10.13;;;;;;;10.01;30.22;100409.03;5070397;28;20683;-59
2022/03/11 10:42:15;;;;;;;10.77;9.67;;;;;;;9.51;31.31;100401.91;5076453;28;20285;-59
2022/03/11 10:44:52;;;;;;;12.80;10.80;;;;;;;8.56;32.58;100408.53;5069703;28;20658;-58
2022/03/11 10:47:20;;;;;;;15.00;11.03;;;;;;;8.15;33.38;100402.47;5068724;28;20216;-63
2022/03/11 10:49:54;;;;;;;12.13;10.30;;;;;;;7.89;34.46;100402.59;5069681;28;20181;-59
2022/03/11 10:52:56;;;;;;;11.63;10.00;;;;;;;7.70;33.87;100399.06;5041345;28;20270;-58
2022/03/11 10:55:26;;;;;;;13.73;10.23;;;;;;;7.33;34.48;100400.44;5050231;28;20193;-60
2022/03/11 10:58:04;;;;;;;13.93;10.40;;;;;;;7.04;35.19;100399.75;5048588;28;20236;-59
2022/03/11 11:00:34;;;;;;;12.37;9.90;;;;;;;7.17;35.40;100405.25;5042861;28;20232;-59
2022/03/11 11:03:02;;;;;;;11.20;9.67;;;;;;;7.48;35.50;100396.47;5049452;28;20170;-59
2022/03/11 11:05:28;;;;;;;16.67;9.37;;;;;;;7.50;34.52;100397.25;5050149;28;20185;-59
2022/03/11 11:07:55;;;;;;;12.57;9.60;;;;;;;7.41;34.79;100395.88;5068766;28;20177;-59
2022/03/11 11:10:22;;;;;;;14.60;9.67;;;;;;;7.62;35.18;100388.31;5059043;28;20576;-59
2022/03/11 11:12:49;;;;;;;12.17;9.80;;;;;;;7.46;35.14;100382.91;5055742;28;20201;-58
2022/03/11 11:15:16;;;;;;;13.33;9.93;;;;;;;7.55;35.04;100378.28;5069495;28;20181;-59